Terminal Aerodrome Forecast
Issued by NWS Charleston, WV

Home | Current Version | Previous Version | Text Only | Print | Product List | Glossary On
Versions: 1 2 3 4 5 6 7 8 9 10 11 12 13 14 15 16 17 18 19 20
000
FTUS41 KRLX 041100
TAFPKB
TAF
KPKB 041140Z 0412/0512 00000KT P6SM FEW080
     FM041600 24008KT P6SM SCT060
     FM050100 22003KT P6SM SCT100 BKN250
     FM050500 VRB02KT P6SM BKN060=

USA.gov is the U.S. government's official web portal to all federal, state and local government web resources and services.